Time;durP1;ratioP1;P1;durP2;ratioP2;P2;SDS_P1;SDS_P2;PMS_P1;PMS_P2;Temp;Humidity;BMP_temperature;BMP_pressure;BME280_temperature;BME280_humidity;BME280_pressure;Samples;Min_cycle;Max_cycle;Signal;HPM_P1;HPM_P2
2022/01/09 00:00:45;;;;;;;4.13;1.70;;;;;;;;;;5088726;28;20481;-46
2022/01/09 00:03:12;;;;;;;3.15;1.35;;;;;;;;;;5069805;28;20717;-47
2022/01/09 00:05:39;;;;;;;2.47;1.20;;;;;;;;;;5087725;28;20028;-47
2022/01/09 00:08:05;;;;;;;3.20;1.25;;;;;;;;;;5089869;28;20126;-49
2022/01/09 00:10:33;;;;;;;4.70;1.70;;;;;;;;;;5105518;28;20020;-47
2022/01/09 00:12:59;;;;;;;3.97;1.48;;;;;;;;;;5103462;28;20035;-48
2022/01/09 00:15:26;;;;;;;4.55;1.30;;;;;;;;;;5108163;28;20027;-46
2022/01/09 00:17:52;;;;;;;5.22;1.58;;;;;;;;;;5100904;28;20391;-48
2022/01/09 00:20:19;;;;;;;3.38;1.33;;;;;;;;;;5071970;28;20028;-47
2022/01/09 00:22:48;;;;;;;2.63;1.15;;;;;;;;;;5088397;28;20054;-48
2022/01/09 00:25:18;;;;;;;3.00;1.40;;;;;;;;;;5088314;28;20012;-48
2022/01/09 00:27:44;;;;;;;2.47;1.42;;;;;;;;;;5068426;28;20247;-48
2022/01/09 00:30:11;;;;;;;2.05;1.10;;;;;;;;;;5073230;28;20028;-47
2022/01/09 00:32:37;;;;;;;4.32;1.60;;;;;;;;;;5091097;28;20129;-49
2022/01/09 00:35:04;;;;;;;2.63;1.30;;;;;;;;;;5107476;28;20137;-50
2022/01/09 00:37:30;;;;;;;2.65;1.33;;;;;;;;;;5107348;28;20498;-47
2022/01/09 00:39:57;;;;;;;3.67;1.45;;;;;;;;;;5107700;28;20052;-49
2022/01/09 00:42:23;;;;;;;2.80;1.35;;;;;;;;;;5069594;28;20031;-47
2022/01/09 00:44:49;;;;;;;3.53;1.40;;;;;;;;;;5087516;28;20102;-47
2022/01/09 00:47:16;;;;;;;3.20;1.23;;;;;;;;;;5087526;28;20028;-47
2022/01/09 00:49:42;;;;;;;4.32;1.67;;;;;;;;;;5087002;28;20085;-47
2022/01/09 00:52:08;;;;;;;3.55;1.10;;;;;;;;;;5087006;28;20031;-48
2022/01/09 00:54:34;;;;;;;3.67;1.10;;;;;;;;;;5091182;28;20436;-47
2022/01/09 00:57:00;;;;;;;2.53;1.20;;;;;;;;;;5092149;28;20083;-47
2022/01/09 00:59:26;;;;;;;2.90;1.20;;;;;;;;;;5086597;28;20103;-48
2022/01/09 01:01:52;;;;;;;3.53;1.20;;;;;;;;;;5086786;28;20491;-48
2022/01/09 01:04:18;;;;;;;2.60;1.23;;;;;;;;;;5086458;28;20031;-48
2022/01/09 01:06:45;;;;;;;4.25;1.25;;;;;;;;;;5087466;28;20024;-49
2022/01/09 01:09:11;;;;;;;2.75;1.10;;;;;;;;;;5086843;28;20055;-50
2022/01/09 01:11:38;;;;;;;3.90;1.17;;;;;;;;;;5093959;28;20115;-48
2022/01/09 01:14:06;;;;;;;3.38;0.65;;;;;;;;;;5086673;28;20052;-48
2022/01/09 01:16:32;;;;;;;3.45;0.52;;;;;;;;;;5068435;28;20115;-48
2022/01/09 01:19:00;;;;;;;2.47;0.47;;;;;;;;;;5086366;28;20110;-48
2022/01/09 01:21:27;;;;;;;2.50;0.40;;;;;;;;;;5086180;28;20024;-50
2022/01/09 01:23:53;;;;;;;2.05;0.77;;;;;;;;;;5102363;28;20038;-50
2022/01/09 01:26:20;;;;;;;1.75;0.40;;;;;;;;;;5078684;28;20506;-49
2022/01/09 01:28:47;;;;;;;1.98;0.63;;;;;;;;;;5087131;28;20115;-48
2022/01/09 01:31:14;;;;;;;0.85;0.45;;;;;;;;;;5086705;28;20530;-48
2022/01/09 01:33:40;;;;;;;1.67;0.80;;;;;;;;;;5086309;28;20479;-49
2022/01/09 01:36:07;;;;;;;1.73;0.65;;;;;;;;;;5083693;28;20085;-48
2022/01/09 01:38:33;;;;;;;1.27;0.60;;;;;;;;;;5086474;28;20031;-52
2022/01/09 01:41:00;;;;;;;1.58;0.52;;;;;;;;;;5089985;28;20510;-48
2022/01/09 01:43:27;;;;;;;1.67;0.60;;;;;;;;;;5086332;28;20023;-48
2022/01/09 01:45:53;;;;;;;1.45;0.55;;;;;;;;;;5086242;28;20549;-49
2022/01/09 01:48:20;;;;;;;0.35;0.35;;;;;;;;;;5085406;28;20032;-48
2022/01/09 01:50:47;;;;;;;2.30;0.52;;;;;;;;;;5104347;28;20106;-49
2022/01/09 01:53:19;;;;;;;0.60;0.30;;;;;;;;;;5087314;28;20486;-50
2022/01/09 01:55:51;;;;;;;1.30;0.40;;;;;;;;;;5101595;28;20439;-51
2022/01/09 01:58:17;;;;;;;2.85;0.40;;;;;;;;;;5085387;28;20451;-52
2022/01/09 02:00:43;;;;;;;0.80;0.40;;;;;;;;;;5086628;28;20063;-48
2022/01/09 02:03:10;;;;;;;0.50;0.50;;;;;;;;;;5085251;28;20275;-48
2022/01/09 02:05:38;;;;;;;1.00;0.30;;;;;;;;;;5100473;28;20030;-48
2022/01/09 02:08:05;;;;;;;0.45;0.32;;;;;;;;;;5105951;28;20031;-49
2022/01/09 02:10:31;;;;;;;0.68;0.47;;;;;;;;;;5100377;28;20491;-48
2022/01/09 02:12:58;;;;;;;0.40;0.40;;;;;;;;;;5085773;28;20024;-48
2022/01/09 02:15:30;;;;;;;0.57;0.30;;;;;;;;;;5085143;28;20032;-49
2022/01/09 02:17:57;;;;;;;0.30;0.28;;;;;;;;;;5085310;28;20436;-48
2022/01/09 02:20:23;;;;;;;0.82;0.30;;;;;;;;;;5085235;28;20032;-48
2022/01/09 02:22:50;;;;;;;0.88;0.52;;;;;;;;;;5067045;28;20043;-47
2022/01/09 02:25:17;;;;;;;0.55;0.32;;;;;;;;;;5101376;28;20090;-48
2022/01/09 02:27:43;;;;;;;0.90;0.70;;;;;;;;;;5084123;28;20029;-48
2022/01/09 02:30:10;;;;;;;0.90;0.73;;;;;;;;;;5085204;28;20103;-48
2022/01/09 02:32:36;;;;;;;2.63;1.20;;;;;;;;;;5085060;28;20077;-49
2022/01/09 02:35:02;;;;;;;3.08;1.25;;;;;;;;;;5085478;28;20026;-48
2022/01/09 02:37:28;;;;;;;1.67;0.90;;;;;;;;;;5084874;28;20070;-48
2022/01/09 02:39:54;;;;;;;1.70;1.17;;;;;;;;;;5084980;28;20526;-48
2022/01/09 02:42:23;;;;;;;1.75;0.80;;;;;;;;;;5085230;28;20071;-47
2022/01/09 02:44:49;;;;;;;1.38;0.90;;;;;;;;;;5099703;28;20027;-48
2022/01/09 02:47:15;;;;;;;0.60;0.60;;;;;;;;;;5105463;28;20028;-47
2022/01/09 02:49:47;;;;;;;1.75;0.70;;;;;;;;;;5105170;28;20015;-48
2022/01/09 02:52:28;;;;;;;0.70;0.60;;;;;;;;;;5105657;28;20491;-47
2022/01/09 02:55:15;;;;;;;0.40;0.30;;;;;;;;;;5105323;28;20422;-48
2022/01/09 02:57:47;;;;;;;0.68;0.40;;;;;;;;;;5084000;28;20499;-48
2022/01/09 03:00:15;;;;;;;1.45;0.50;;;;;;;;;;5104491;28;20245;-47
2022/01/09 03:02:41;;;;;;;0.57;0.52;;;;;;;;;;5086389;28;20060;-48
2022/01/09 03:05:07;;;;;;;2.22;0.50;;;;;;;;;;5085507;28;20031;-51
2022/01/09 03:07:33;;;;;;;0.47;0.30;;;;;;;;;;5104875;28;20032;-48
2022/01/09 03:09:59;;;;;;;0.75;0.30;;;;;;;;;;5086413;28;20028;-49
2022/01/09 03:12:26;;;;;;;0.75;0.30;;;;;;;;;;5085829;28;20031;-48
2022/01/09 03:14:53;;;;;;;1.98;0.50;;;;;;;;;;5083607;28;20419;-48
2022/01/09 03:17:19;;;;;;;1.67;0.50;;;;;;;;;;5088113;28;20118;-49
2022/01/09 03:19:45;;;;;;;1.50;0.47;;;;;;;;;;5105003;28;20118;-48
2022/01/09 03:22:11;;;;;;;2.33;0.60;;;;;;;;;;5091031;28;20092;-48
2022/01/09 03:24:38;;;;;;;0.77;0.40;;;;;;;;;;5066229;28;20031;-48
2022/01/09 03:27:04;;;;;;;0.68;0.40;;;;;;;;;;5083820;28;20078;-48
2022/01/09 03:29:30;;;;;;;0.77;0.40;;;;;;;;;;5083269;28;20395;-48
2022/01/09 03:31:56;;;;;;;1.02;0.50;;;;;;;;;;5096233;28;20209;-48
2022/01/09 03:34:22;;;;;;;1.27;0.50;;;;;;;;;;5104277;28;20111;-49
2022/01/09 03:36:48;;;;;;;1.23;0.60;;;;;;;;;;5104442;28;20031;-47
2022/01/09 03:39:14;;;;;;;3.50;1.27;;;;;;;;;;5086646;28;20024;-48
2022/01/09 03:41:41;;;;;;;2.15;0.98;;;;;;;;;;5092190;28;20055;-49
2022/01/09 03:44:07;;;;;;;1.75;0.65;;;;;;;;;;5083933;28;20020;-50
2022/01/09 03:46:33;;;;;;;2.33;0.70;;;;;;;;;;5094815;28;20063;-49
2022/01/09 03:49:00;;;;;;;2.50;0.80;;;;;;;;;;5103056;28;20081;-48
2022/01/09 03:51:32;;;;;;;1.42;0.70;;;;;;;;;;5101409;28;20040;-47
2022/01/09 03:53:58;;;;;;;1.42;0.50;;;;;;;;;;5094985;28;20114;-49
2022/01/09 03:56:26;;;;;;;0.82;0.38;;;;;;;;;;5085416;28;20054;-48
2022/01/09 03:58:52;;;;;;;0.93;0.50;;;;;;;;;;5085843;28;20072;-48
2022/01/09 04:01:18;;;;;;;0.45;0.35;;;;;;;;;;5084296;28;20418;-49
2022/01/09 04:03:45;;;;;;;0.60;0.35;;;;;;;;;;5085383;28;20024;-48
2022/01/09 04:06:11;;;;;;;0.75;0.30;;;;;;;;;;5084229;28;20491;-48
2022/01/09 04:08:38;;;;;;;0.30;0.30;;;;;;;;;;5084200;28;20529;-50
2022/01/09 04:11:06;;;;;;;0.30;0.30;;;;;;;;;;5084077;28;20016;-49
2022/01/09 04:13:32;;;;;;;0.73;0.38;;;;;;;;;;5084193;28;20541;-48
2022/01/09 04:15:59;;;;;;;0.63;0.30;;;;;;;;;;5084664;28;20016;-47
2022/01/09 04:18:25;;;;;;;0.73;0.32;;;;;;;;;;5084270;28;20090;-50
2022/01/09 04:20:52;;;;;;;0.82;0.40;;;;;;;;;;5084423;28;20271;-47
2022/01/09 04:23:19;;;;;;;0.30;0.30;;;;;;;;;;5084042;28;20055;-48
2022/01/09 04:25:45;;;;;;;0.63;0.32;;;;;;;;;;5084552;28;20016;-48
2022/01/09 04:28:13;;;;;;;0.40;0.30;;;;;;;;;;5083831;28;20056;-47
2022/01/09 04:30:40;;;;;;;0.95;0.40;;;;;;;;;;5084125;28;20024;-48
2022/01/09 04:33:06;;;;;;;0.35;0.30;;;;;;;;;;5084546;28;20283;-48
2022/01/09 04:35:32;;;;;;;0.88;0.40;;;;;;;;;;5084346;28;20054;-47
2022/01/09 04:37:59;;;;;;;0.70;0.40;;;;;;;;;;5084102;28;20035;-47
2022/01/09 04:40:25;;;;;;;0.68;0.40;;;;;;;;;;5086435;28;20109;-48
2022/01/09 04:42:56;;;;;;;0.25;0.25;;;;;;;;;;5087685;28;20056;-47
2022/01/09 04:45:24;;;;;;;1.13;0.50;;;;;;;;;;5087592;28;20099;-47
2022/01/09 04:47:53;;;;;;;0.43;0.40;;;;;;;;;;5087839;28;20027;-47
2022/01/09 04:50:22;;;;;;;0.47;0.35;;;;;;;;;;5087703;28;20017;-48
2022/01/09 04:52:52;;;;;;;1.65;0.50;;;;;;;;;;5088248;28;20024;-50
2022/01/09 04:55:19;;;;;;;0.50;0.45;;;;;;;;;;5087217;28;20031;-47
2022/01/09 04:57:47;;;;;;;3.45;0.75;;;;;;;;;;5088528;28;20062;-48
2022/01/09 05:00:13;;;;;;;0.73;0.50;;;;;;;;;;5088005;28;20445;-50
2022/01/09 05:02:40;;;;;;;1.65;0.47;;;;;;;;;;5087808;28;20032;-49
2022/01/09 05:05:07;;;;;;;1.15;0.47;;;;;;;;;;5087610;28;20081;-47
2022/01/09 05:07:33;;;;;;;0.43;0.38;;;;;;;;;;5087510;28;20036;-47
2022/01/09 05:09:59;;;;;;;1.25;0.50;;;;;;;;;;5087337;28;20027;-47
2022/01/09 05:12:26;;;;;;;1.50;0.60;;;;;;;;;;5086634;28;20035;-48
2022/01/09 05:14:52;;;;;;;0.50;0.40;;;;;;;;;;5087353;28;20024;-48
2022/01/09 05:17:18;;;;;;;1.45;0.80;;;;;;;;;;5087019;28;20032;-47
2022/01/09 05:19:46;;;;;;;2.05;0.68;;;;;;;;;;5088036;28;20020;-47
2022/01/09 05:22:12;;;;;;;0.52;0.40;;;;;;;;;;5087741;28;20024;-48
2022/01/09 05:24:38;;;;;;;1.15;0.60;;;;;;;;;;5086923;28;20027;-48
2022/01/09 05:27:05;;;;;;;1.33;0.50;;;;;;;;;;5086810;28;20478;-48
2022/01/09 05:29:31;;;;;;;2.17;0.60;;;;;;;;;;5086613;28;20028;-49
2022/01/09 05:31:58;;;;;;;2.85;1.38;;;;;;;;;;5087167;28;20032;-48
2022/01/09 05:34:25;;;;;;;0.65;0.40;;;;;;;;;;5086928;28;20077;-48
2022/01/09 05:36:52;;;;;;;3.78;0.80;;;;;;;;;;5086983;28;20107;-48
2022/01/09 05:39:18;;;;;;;3.20;0.95;;;;;;;;;;5086515;28;20052;-49
2022/01/09 05:41:45;;;;;;;5.30;1.25;;;;;;;;;;5087003;28;20050;-47
2022/01/09 05:44:11;;;;;;;2.45;0.90;;;;;;;;;;5086528;28;20012;-48
2022/01/09 05:46:37;;;;;;;1.75;0.70;;;;;;;;;;5086667;28;20034;-48
2022/01/09 05:49:03;;;;;;;6.85;0.85;;;;;;;;;;5086638;28;20035;-47
2022/01/09 05:51:29;;;;;;;3.25;1.05;;;;;;;;;;5085227;28;20047;-48
2022/01/09 05:53:55;;;;;;;2.97;0.80;;;;;;;;;;5086928;28;20053;-48
2022/01/09 05:56:21;;;;;;;1.95;0.77;;;;;;;;;;5085769;28;20038;-48
2022/01/09 05:58:47;;;;;;;1.95;0.80;;;;;;;;;;5086245;28;20035;-47
2022/01/09 06:01:14;;;;;;;2.22;0.80;;;;;;;;;;5086829;28;20024;-48
2022/01/09 06:03:41;;;;;;;1.48;0.65;;;;;;;;;;5086666;28;20098;-48
2022/01/09 06:06:08;;;;;;;1.98;0.73;;;;;;;;;;5086097;28;20032;-48
2022/01/09 06:08:35;;;;;;;1.52;0.63;;;;;;;;;;5086001;28;20039;-47
2022/01/09 06:11:02;;;;;;;1.88;0.80;;;;;;;;;;5086269;28;20032;-48
2022/01/09 06:13:28;;;;;;;2.20;0.90;;;;;;;;;;5067862;28;20028;-48
2022/01/09 06:15:54;;;;;;;3.65;0.93;;;;;;;;;;5086180;28;20036;-47
2022/01/09 06:18:21;;;;;;;1.33;0.70;;;;;;;;;;5085974;28;20028;-48
2022/01/09 06:20:48;;;;;;;1.70;0.95;;;;;;;;;;5085963;28;20127;-51
2022/01/09 06:23:20;;;;;;;3.90;1.50;;;;;;;;;;5086426;28;20073;-48
2022/01/09 06:25:47;;;;;;;5.38;3.20;;;;;;;;;;5086248;28;20537;-47
2022/01/09 06:28:13;;;;;;;11.07;4.82;;;;;;;;;;5086328;28;20110;-47
2022/01/09 06:30:39;;;;;;;10.52;5.53;;;;;;;;;;5085849;28;20107;-48
2022/01/09 06:33:05;;;;;;;7.88;4.32;;;;;;;;;;5086115;28;20479;-47
2022/01/09 06:35:31;;;;;;;8.35;3.97;;;;;;;;;;5085239;28;20122;-47
2022/01/09 06:37:57;;;;;;;7.82;3.20;;;;;;;;;;5085806;28;20100;-48
2022/01/09 06:40:23;;;;;;;6.10;2.70;;;;;;;;;;5085109;28;20107;-52
2022/01/09 06:42:50;;;;;;;6.32;2.70;;;;;;;;;;5085540;28;20519;-49
2022/01/09 06:45:16;;;;;;;4.38;2.30;;;;;;;;;;5086049;28;20028;-51
2022/01/09 06:47:43;;;;;;;4.57;2.20;;;;;;;;;;5086755;28;20012;-50
2022/01/09 06:50:14;;;;;;;4.93;1.95;;;;;;;;;;5086551;28;20085;-49
2022/01/09 06:52:40;;;;;;;4.78;2.20;;;;;;;;;;5087268;28;20016;-51
2022/01/09 06:55:06;;;;;;;3.38;2.08;;;;;;;;;;5085463;28;20604;-53
2022/01/09 06:57:32;;;;;;;4.28;2.30;;;;;;;;;;5083524;28;20457;-47
2022/01/09 06:59:58;;;;;;;3.70;1.95;;;;;;;;;;5085205;28;20093;-50
2022/01/09 07:02:25;;;;;;;5.43;1.95;;;;;;;;;;5084086;28;20066;-52
2022/01/09 07:04:52;;;;;;;4.22;1.90;;;;;;;;;;5085774;28;20493;-50
2022/01/09 07:07:18;;;;;;;3.42;1.90;;;;;;;;;;5085438;28;20032;-49
2022/01/09 07:09:44;;;;;;;4.25;1.50;;;;;;;;;;5086178;28;20081;-48
2022/01/09 07:12:11;;;;;;;2.95;1.45;;;;;;;;;;5084886;28;20067;-48
2022/01/09 07:14:37;;;;;;;2.85;1.48;;;;;;;;;;5085955;28;20395;-48
2022/01/09 07:17:03;;;;;;;3.35;1.10;;;;;;;;;;5085434;28;20459;-47
2022/01/09 07:19:30;;;;;;;3.33;1.10;;;;;;;;;;5085114;28;20146;-48
2022/01/09 07:21:56;;;;;;;5.18;1.80;;;;;;;;;;5085326;28;20058;-47
2022/01/09 07:24:22;;;;;;;3.28;1.00;;;;;;;;;;5085033;28;20070;-47
2022/01/09 07:26:48;;;;;;;2.58;1.15;;;;;;;;;;5085917;28;20028;-48
2022/01/09 07:29:14;;;;;;;3.25;1.20;;;;;;;;;;5086654;28;20154;-47
2022/01/09 07:31:40;;;;;;;2.10;1.40;;;;;;;;;;5086219;28;20125;-51
2022/01/09 07:34:06;;;;;;;3.65;1.60;;;;;;;;;;5068532;28;20561;-49
2022/01/09 07:36:32;;;;;;;5.88;2.88;;;;;;;;;;5086274;28;20613;-49
2022/01/09 07:38:58;;;;;;;13.63;7.13;;;;;;;;;;5086242;28;20542;-48
2022/01/09 07:41:25;;;;;;;14.05;7.00;;;;;;;;;;5067202;28;20101;-49
2022/01/09 07:43:51;;;;;;;14.63;6.88;;;;;;;;;;5086016;28;20020;-48
2022/01/09 07:46:17;;;;;;;11.80;5.43;;;;;;;;;;5086744;28;20478;-47
2022/01/09 07:48:43;;;;;;;8.05;4.15;;;;;;;;;;5086753;28;20114;-48
2022/01/09 07:51:10;;;;;;;8.68;3.72;;;;;;;;;;5086146;28;20035;-49
2022/01/09 07:53:36;;;;;;;7.57;3.20;;;;;;;;;;5086379;28;20426;-48
2022/01/09 07:56:02;;;;;;;7.60;3.25;;;;;;;;;;5085295;28;20073;-48
2022/01/09 07:58:28;;;;;;;6.60;3.63;;;;;;;;;;5085565;28;20432;-49
2022/01/09 08:00:54;;;;;;;6.07;3.15;;;;;;;;;;5086084;28;20447;-48
2022/01/09 08:03:20;;;;;;;6.00;2.97;;;;;;;;;;5085700;28;20028;-47
2022/01/09 08:05:46;;;;;;;5.00;2.58;;;;;;;;;;5085934;28;20520;-48
2022/01/09 08:08:13;;;;;;;5.53;2.30;;;;;;;;;;5084208;28;20036;-49
2022/01/09 08:10:40;;;;;;;5.47;2.40;;;;;;;;;;5084239;28;20016;-49
2022/01/09 08:13:06;;;;;;;6.15;2.13;;;;;;;;;;5066329;28;20036;-48
2022/01/09 08:15:32;;;;;;;2.28;1.60;;;;;;;;;;5087678;28;20479;-49
2022/01/09 08:17:58;;;;;;;5.20;1.75;;;;;;;;;;5088550;28;20039;-49
2022/01/09 08:20:25;;;;;;;4.20;1.95;;;;;;;;;;5088161;28;20032;-50
2022/01/09 08:22:51;;;;;;;3.83;2.05;;;;;;;;;;5081131;28;20074;-48
2022/01/09 08:25:17;;;;;;;3.70;1.88;;;;;;;;;;5077914;28;20503;-50
2022/01/09 08:27:44;;;;;;;16.42;7.05;;;;;;;;;;5089646;28;20020;-48
2022/01/09 08:30:12;;;;;;;16.23;8.05;;;;;;;;;;5088888;28;20024;-49
2022/01/09 08:32:38;;;;;;;17.08;8.45;;;;;;;;;;5087967;28;20119;-50
2022/01/09 08:35:05;;;;;;;14.32;7.78;;;;;;;;;;5086359;28;20028;-49
2022/01/09 08:37:31;;;;;;;15.65;8.07;;;;;;;;;;5089026;28;20034;-52
2022/01/09 08:39:59;;;;;;;12.45;6.85;;;;;;;;;;5092923;28;20024;-48
2022/01/09 08:42:24;;;;;;;8.68;5.00;;;;;;;;;;5090579;28;20038;-48
2022/01/09 08:44:51;;;;;;;9.02;4.28;;;;;;;;;;5089422;28;20099;-50
2022/01/09 08:47:18;;;;;;;6.78;3.80;;;;;;;;;;5089330;28;20495;-49
2022/01/09 08:49:45;;;;;;;7.93;4.13;;;;;;;;;;5090202;28;20028;-52
2022/01/09 08:52:12;;;;;;;7.90;3.80;;;;;;;;;;5088780;28;20085;-50
2022/01/09 08:54:38;;;;;;;7.90;4.10;;;;;;;;;;5086143;28;20024;-50
2022/01/09 08:57:05;;;;;;;6.60;3.25;;;;;;;;;;5071746;28;20035;-50
2022/01/09 08:59:31;;;;;;;6.32;3.08;;;;;;;;;;5088337;28;20570;-50
2022/01/09 09:01:58;;;;;;;5.32;2.78;;;;;;;;;;5089317;28;20040;-49
2022/01/09 09:04:25;;;;;;;5.40;3.13;;;;;;;;;;5088828;28;20114;-51
2022/01/09 09:06:52;;;;;;;7.07;3.58;;;;;;;;;;5088587;28;20060;-48
2022/01/09 09:09:18;;;;;;;5.40;3.28;;;;;;;;;;5088361;28;20379;-51
2022/01/09 09:11:44;;;;;;;7.63;3.65;;;;;;;;;;5087606;28;20036;-50
2022/01/09 09:14:11;;;;;;;4.75;3.10;;;;;;;;;;5088531;28;20041;-49
2022/01/09 09:16:37;;;;;;;4.15;2.85;;;;;;;;;;5088783;28;20209;-51
2022/01/09 09:19:03;;;;;;;4.13;2.45;;;;;;;;;;5088772;28;20047;-50
2022/01/09 09:21:29;;;;;;;4.80;2.65;;;;;;;;;;5088535;28;20573;-48
2022/01/09 09:23:56;;;;;;;3.75;2.10;;;;;;;;;;5089154;28;20032;-50
2022/01/09 09:26:22;;;;;;;3.78;1.67;;;;;;;;;;5068086;28;20506;-49
2022/01/09 09:28:48;;;;;;;2.85;1.55;;;;;;;;;;5088581;28;20506;-51
2022/01/09 09:31:14;;;;;;;3.15;1.83;;;;;;;;;;5088117;28;20506;-51
2022/01/09 09:33:40;;;;;;;4.50;2.35;;;;;;;;;;5087094;28;20035;-49
2022/01/09 09:36:07;;;;;;;4.40;1.75;;;;;;;;;;5084651;28;20110;-50
2022/01/09 09:38:34;;;;;;;4.32;1.60;;;;;;;;;;5087896;28;20024;-47
2022/01/09 09:41:00;;;;;;;3.30;1.70;;;;;;;;;;5088238;28;20031;-49
2022/01/09 09:43:26;;;;;;;4.97;1.80;;;;;;;;;;5087639;28;20047;-48
2022/01/09 09:45:53;;;;;;;2.60;1.38;;;;;;;;;;5088197;28;20081;-48
2022/01/09 09:48:19;;;;;;;2.97;1.60;;;;;;;;;;5087683;28;20099;-48
2022/01/09 09:50:46;;;;;;;5.22;2.75;;;;;;;;;;5088170;28;20024;-51
2022/01/09 09:53:13;;;;;;;5.95;2.67;;;;;;;;;;5087659;28;20028;-49
2022/01/09 09:55:40;;;;;;;2.97;2.05;;;;;;;;;;5069075;28;20034;-51
2022/01/09 09:58:06;;;;;;;3.13;2.33;;;;;;;;;;5087909;28;20107;-50
2022/01/09 10:00:33;;;;;;;6.50;3.33;;;;;;;;;;5087494;28;20035;-50
2022/01/09 10:03:00;;;;;;;5.63;3.35;;;;;;;;;;5088284;28;20020;-48
2022/01/09 10:05:28;;;;;;;7.43;3.90;;;;;;;;;;5087236;28;20074;-50
2022/01/09 10:07:55;;;;;;;4.90;3.38;;;;;;;;;;5087698;28;20036;-48
2022/01/09 10:10:29;;;;;;;7.57;3.33;;;;;;;;;;5086743;28;20028;-49
2022/01/09 10:13:05;;;;;;;5.90;2.88;;;;;;;;;;5087560;28;20492;-52
2022/01/09 10:15:42;;;;;;;4.63;2.10;;;;;;;;;;5087795;28;20152;-47
2022/01/09 10:18:09;;;;;;;5.40;3.20;;;;;;;;;;5086846;28;20036;-50
2022/01/09 10:20:35;;;;;;;4.22;2.92;;;;;;;;;;5087252;28;20404;-49
2022/01/09 10:23:02;;;;;;;6.65;2.67;;;;;;;;;;5087442;28;20050;-48
2022/01/09 10:25:33;;;;;;;5.90;2.53;;;;;;;;;;5087054;28;20103;-48
2022/01/09 10:28:02;;;;;;;6.13;2.20;;;;;;;;;;5067508;28;20412;-48
2022/01/09 10:30:44;;;;;;;5.32;1.77;;;;;;;;;;5067114;28;20026;-49
2022/01/09 10:33:12;;;;;;;4.45;1.70;;;;;;;;;;5083832;28;20095;-48
2022/01/09 10:35:41;;;;;;;4.30;2.47;;;;;;;;;;5082420;28;20028;-48
2022/01/09 10:38:17;;;;;;;5.63;2.67;;;;;;;;;;5068148;28;20020;-49
2022/01/09 10:40:44;;;;;;;5.60;2.92;;;;;;;;;;5086442;28;20020;-48
2022/01/09 10:43:17;;;;;;;5.80;2.78;;;;;;;;;;5086548;28;20507;-49
2022/01/09 10:45:46;;;;;;;6.20;2.40;;;;;;;;;;5086845;28;20020;-50
2022/01/09 10:48:18;;;;;;;3.60;1.90;;;;;;;;;;5086282;28;20026;-48
2022/01/09 10:50:45;;;;;;;5.70;2.08;;;;;;;;;;5085594;28;20178;-48
2022/01/09 10:53:23;;;;;;;4.13;2.08;;;;;;;;;;5084985;28;20027;-48
2022/01/09 10:56:00;;;;;;;5.22;2.30;;;;;;;;;;5086282;28;20106;-50
2022/01/09 10:58:27;;;;;;;4.20;2.30;;;;;;;;;;5084999;28;20040;-49
2022/01/09 11:01:09;;;;;;;4.65;2.65;;;;;;;;;;5086751;28;20127;-51
2022/01/09 11:03:36;;;;;;;3.55;2.30;;;;;;;;;;5086420;28;20039;-48
2022/01/09 11:06:02;;;;;;;3.30;2.15;;;;;;;;;;5085822;28;20028;-51
2022/01/09 11:08:31;;;;;;;3.17;2.00;;;;;;;;;;5086170;28;20410;-50
2022/01/09 11:11:01;;;;;;;2.30;1.63;;;;;;;;;;5085805;28;20029;-48
2022/01/09 11:13:28;;;;;;;4.93;2.03;;;;;;;;;;5086145;28;20363;-49
2022/01/09 11:18:42;;;;;;;3.45;2.03;;;;;;;;;;5080693;28;20090;-51
2022/01/09 11:21:09;;;;;;;8.77;3.92;;;;;;;;;;5068107;28;20024;-51
2022/01/09 11:23:47;;;;;;;5.55;2.90;;;;;;;;;;5086005;28;20032;-49
2022/01/09 11:26:14;;;;;;;7.95;2.80;;;;;;;;;;5086118;28;20359;-51
2022/01/09 11:28:42;;;;;;;6.72;2.40;;;;;;;;;;5086506;28;20028;-48
2022/01/09 11:31:13;;;;;;;9.80;3.53;;;;;;;;;;5085822;28;20024;-52
2022/01/09 11:33:59;;;;;;;7.38;3.35;;;;;;;;;;5085652;28;20093;-48
2022/01/09 11:36:42;;;;;;;8.70;4.68;;;;;;;;;;5078360;28;20032;-51
2022/01/09 11:39:24;;;;;;;5.43;3.35;;;;;;;;;;5066789;28;20033;-50
2022/01/09 11:42:09;;;;;;;6.93;2.78;;;;;;;;;;5079542;28;20047;-49
2022/01/09 11:44:43;;;;;;;9.18;5.78;;;;;;;;;;5087126;28;20024;-50
2022/01/09 11:47:09;;;;;;;6.65;4.05;;;;;;;;;;5086971;28;20468;-52
2022/01/09 11:49:54;;;;;;;7.90;3.67;;;;;;;;;;5085994;28;20028;-49
2022/01/09 11:52:30;;;;;;;5.07;2.58;;;;;;;;;;5086773;28;20032;-49
2022/01/09 11:55:00;;;;;;;5.20;2.90;;;;;;;;;;5086857;28;20130;-48
2022/01/09 11:57:45;;;;;;;5.45;2.75;;;;;;;;;;5086033;28;20058;-49
2022/01/09 12:00:30;;;;;;;3.65;2.20;;;;;;;;;;5087473;28;20089;-48
2022/01/09 12:02:56;;;;;;;4.30;2.78;;;;;;;;;;5086862;28;20034;-47
2022/01/09 12:05:22;;;;;;;4.07;2.65;;;;;;;;;;5086917;28;20471;-48
2022/01/09 12:07:48;;;;;;;9.18;3.60;;;;;;;;;;5086962;28;20028;-50
2022/01/09 12:10:17;;;;;;;6.03;3.88;;;;;;;;;;5083509;28;20111;-51
2022/01/09 12:12:43;;;;;;;5.45;3.10;;;;;;;;;;5079387;28;20545;-48
2022/01/09 12:15:11;;;;;;;5.88;3.10;;;;;;;;;;5083621;28;20032;-47
2022/01/09 12:17:42;;;;;;;5.57;2.50;;;;;;;;;;5086864;28;20387;-50
2022/01/09 12:20:14;;;;;;;4.03;2.38;;;;;;;;;;5081778;28;20127;-49
2022/01/09 12:22:44;;;;;;;3.83;2.20;;;;;;;;;;5086908;28;20103;-48
2022/01/09 12:25:11;;;;;;;3.33;1.88;;;;;;;;;;5086297;28;20030;-48
2022/01/09 12:27:44;;;;;;;3.85;1.70;;;;;;;;;;5086303;28;20535;-49
2022/01/09 12:30:12;;;;;;;3.17;1.70;;;;;;;;;;5086796;28;20035;-49
2022/01/09 12:32:38;;;;;;;3.22;1.65;;;;;;;;;;5086654;28;20399;-48
2022/01/09 12:35:14;;;;;;;3.30;1.90;;;;;;;;;;5086541;28;20028;-50
2022/01/09 12:37:48;;;;;;;3.58;2.35;;;;;;;;;;5081237;28;20032;-48
2022/01/09 12:40:15;;;;;;;7.40;2.83;;;;;;;;;;5086750;28;20419;-49
2022/01/09 12:42:50;;;;;;;11.20;5.60;;;;;;;;;;5067908;28;20028;-49
2022/01/09 12:45:24;;;;;;;8.07;3.97;;;;;;;;;;5085830;28;20028;-52
2022/01/09 12:47:50;;;;;;;12.60;6.15;;;;;;;;;;5086038;28;20031;-49
2022/01/09 12:50:17;;;;;;;11.68;5.55;;;;;;;;;;5085567;28;20035;-50
2022/01/09 12:52:43;;;;;;;9.10;4.65;;;;;;;;;;5086993;28;20036;-49
2022/01/09 12:55:11;;;;;;;8.48;4.22;;;;;;;;;;5085663;28;20069;-49
2022/01/09 12:57:54;;;;;;;8.23;4.00;;;;;;;;;;5085215;28;20070;-52
2022/01/09 13:00:27;;;;;;;5.18;2.88;;;;;;;;;;5086801;28;20405;-49
2022/01/09 13:02:54;;;;;;;4.60;2.50;;;;;;;;;;5071053;28;20093;-50
2022/01/09 13:05:24;;;;;;;5.53;2.50;;;;;;;;;;5089205;28;20024;-50
2022/01/09 13:07:55;;;;;;;5.07;2.03;;;;;;;;;;5089416;28;20165;-50
2022/01/09 13:10:27;;;;;;;5.20;1.73;;;;;;;;;;5088473;28;20028;-48
2022/01/09 13:13:03;;;;;;;5.03;1.67;;;;;;;;;;5089315;28;20038;-53
2022/01/09 13:15:33;;;;;;;6.63;2.25;;;;;;;;;;5088738;28;20747;-52
2022/01/09 13:17:59;;;;;;;4.28;2.05;;;;;;;;;;5070823;28;20032;-50
2022/01/09 13:20:25;;;;;;;3.65;2.10;;;;;;;;;;5089085;28;20024;-52
2022/01/09 13:23:04;;;;;;;3.78;1.80;;;;;;;;;;5089264;28;20055;-52
2022/01/09 13:25:40;;;;;;;5.20;1.67;;;;;;;;;;5088562;28;20031;-51
2022/01/09 13:28:06;;;;;;;2.72;1.60;;;;;;;;;;5087387;28;20516;-50
2022/01/09 13:30:32;;;;;;;2.60;1.60;;;;;;;;;;5085679;28;20372;-53
2022/01/09 13:33:03;;;;;;;3.83;1.77;;;;;;;;;;5105069;28;20032;-52
2022/01/09 13:35:29;;;;;;;4.30;1.63;;;;;;;;;;5100123;28;20592;-51
2022/01/09 13:37:58;;;;;;;4.63;1.80;;;;;;;;;;5081010;28;20040;-50
2022/01/09 13:40:24;;;;;;;3.83;2.22;;;;;;;;;;5084769;28;20103;-50
2022/01/09 13:42:51;;;;;;;4.05;1.80;;;;;;;;;;5087078;28;20032;-50
2022/01/09 13:45:21;;;;;;;2.60;1.60;;;;;;;;;;5086578;28;20525;-50
2022/01/09 13:47:52;;;;;;;2.83;1.52;;;;;;;;;;5086435;28;20530;-49
2022/01/09 13:50:20;;;;;;;3.60;1.77;;;;;;;;;;5085261;28;20115;-53
2022/01/09 13:52:46;;;;;;;2.72;1.75;;;;;;;;;;5079924;28;20036;-50
2022/01/09 13:55:14;;;;;;;2.45;1.58;;;;;;;;;;5093181;28;20031;-51
2022/01/09 13:57:48;;;;;;;3.45;1.90;;;;;;;;;;5086654;28;20028;-50
2022/01/09 14:00:14;;;;;;;3.63;2.10;;;;;;;;;;5086047;28;20079;-50
2022/01/09 14:02:41;;;;;;;5.07;1.83;;;;;;;;;;5068637;28;20035;-49
2022/01/09 14:05:21;;;;;;;3.65;2.03;;;;;;;;;;5086270;28;20527;-52
2022/01/09 14:07:48;;;;;;;3.60;1.70;;;;;;;;;;5085447;28;20101;-50
2022/01/09 14:10:14;;;;;;;2.85;1.67;;;;;;;;;;5085745;28;20398;-50
2022/01/09 14:12:42;;;;;;;2.88;1.35;;;;;;;;;;5085118;28;20546;-51
2022/01/09 14:15:11;;;;;;;2.75;1.50;;;;;;;;;;5085914;28;20035;-49
2022/01/09 14:17:37;;;;;;;3.30;1.65;;;;;;;;;;5085660;28;20047;-49
2022/01/09 14:20:14;;;;;;;3.17;1.83;;;;;;;;;;5086393;28;20105;-49
2022/01/09 14:22:47;;;;;;;3.75;2.08;;;;;;;;;;5086429;28;20085;-49
2022/01/09 14:25:15;;;;;;;2.55;1.92;;;;;;;;;;5086213;28;20143;-50
2022/01/09 14:27:46;;;;;;;4.60;2.45;;;;;;;;;;5083234;28;20410;-49
2022/01/09 14:30:22;;;;;;;2.75;1.75;;;;;;;;;;5085842;28;20035;-51
2022/01/09 14:32:51;;;;;;;4.53;2.00;;;;;;;;;;5082549;28;20039;-50
2022/01/09 14:35:31;;;;;;;3.42;1.65;;;;;;;;;;5084226;28;20051;-49
2022/01/09 14:38:01;;;;;;;3.47;2.00;;;;;;;;;;5064418;28;20472;-50
2022/01/09 14:40:28;;;;;;;6.35;2.78;;;;;;;;;;5081276;28;20036;-50
2022/01/09 14:42:54;;;;;;;5.75;2.90;;;;;;;;;;5084626;28;20498;-50
2022/01/09 14:45:20;;;;;;;4.25;2.70;;;;;;;;;;5070198;28;20040;-49
2022/01/09 14:47:50;;;;;;;5.47;2.15;;;;;;;;;;5085167;28;20090;-49
2022/01/09 14:50:17;;;;;;;4.03;2.15;;;;;;;;;;5085022;28;20036;-50